Time;durP1;ratioP1;P1;durP2;ratioP2;P2;SDS_P1;SDS_P2;PMS_P1;PMS_P2;Temp;Humidity;BMP_temperature;BMP_pressure;BME280_temperature;BME280_humidity;BME280_pressure;Samples;Min_cycle;Max_cycle;Signal;HPM_P1;HPM_P2
2023/02/12 12:59:26;;;;;;;17.00;8.88;;;;;;;8.87;71.17;98444.81;2101350;27;20551;-59
2023/02/12 13:00:36;;;;;;;14.25;7.05;;;;;;;9.24;69.53;98447.06;2105716;28;20685;-59
2023/02/12 13:01:53;;;;;;;18.33;7.80;;;;;;;9.13;69.30;98446.31;2104234;28;20237;-59
2023/02/12 13:03:04;;;;;;;15.65;8.95;;;;;;;8.76;70.52;98433.63;2091815;28;20266;-59
2023/02/12 13:04:39;;;;;;;12.15;7.57;;;;;;;9.46;68.40;98439.00;2082245;28;20235;-59
2023/02/12 13:05:50;;;;;;;15.23;7.30;;;;;;;9.67;67.47;98447.44;2083091;28;20556;-60
2023/02/12 13:07:02;;;;;;;14.35;9.38;;;;;;;8.99;68.73;98438.63;2082425;28;20212;-59
2023/02/12 13:08:32;;;;;;;16.50;8.35;;;;;;;8.33;71.09;98437.41;2078466;28;21196;-59
2023/02/12 13:10:08;;;;;;;14.48;8.27;;;;;;;9.50;68.09;98434.59;2073962;28;20255;-59
2023/02/12 13:11:32;;;;;;;10.57;6.57;;;;;;;10.61;65.49;98423.53;2081042;28;20665;-60
2023/02/12 13:12:39;;;;;;;14.60;6.88;;;;;;;10.77;64.39;98431.09;2076046;28;20694;-59
2023/02/12 13:13:46;;;;;;;17.67;7.90;;;;;;;12.10;61.94;98428.53;2072884;28;20206;-60
2023/02/12 13:14:56;;;;;;;15.73;8.30;;;;;;;12.00;60.29;98427.88;2074905;28;20224;-59
2023/02/12 13:16:20;;;;;;;13.38;7.78;;;;;;;12.71;59.43;98426.19;2071637;28;20637;-60
2023/02/12 13:17:44;;;;;;;18.58;7.22;;;;;;;12.14;60.23;98430.19;2073065;28;20660;-60
2023/02/12 13:19:28;;;;;;;12.93;7.25;;;;;;;11.96;59.83;98436.69;2081518;28;20217;-59
2023/02/12 13:20:46;;;;;;;11.68;6.75;;;;;;;12.76;59.09;98423.47;2080109;28;20212;-60
2023/02/12 13:21:57;;;;;;;12.50;6.60;;;;;;;12.70;58.73;98428.88;2082285;28;20259;-60
2023/02/12 13:23:06;;;;;;;11.52;7.13;;;;;;;12.73;57.89;98421.78;2083415;28;20298;-60
2023/02/12 13:24:29;;;;;;;11.05;6.65;;;;;;;10.98;61.63;98413.31;2079660;28;20212;-59
2023/02/12 13:25:41;;;;;;;9.57;6.10;;;;;;;11.23;61.38;98424.16;2079764;28;20201;-59
2023/02/12 13:26:51;;;;;;;12.65;6.80;;;;;;;10.87;62.68;98429.16;2082693;28;20193;-60
2023/02/12 13:27:55;;;;;;;13.82;8.05;;;;;;;9.69;65.19;98417.84;2080695;28;20197;-59
2023/02/12 13:29:08;;;;;;;11.52;6.60;;;;;;;9.75;65.94;98424.72;2082352;28;20215;-60
2023/02/12 13:30:13;;;;;;;14.90;7.80;;;;;;;9.31;68.00;98432.22;2082056;28;20201;-59
2023/02/12 13:31:27;;;;;;;13.13;8.43;;;;;;;9.99;66.86;98425.28;2082149;28;20193;-59
2023/02/12 13:32:42;;;;;;;13.50;7.63;;;;;;;9.53;67.08;98424.16;2082744;28;20208;-61
2023/02/12 13:33:49;;;;;;;11.05;6.68;;;;;;;10.84;64.24;98419.63;2080099;28;20197;-59
2023/02/12 13:34:53;;;;;;;16.40;7.50;;;;;;;11.56;61.93;98414.78;2081130;28;20200;-59
2023/02/12 13:35:59;;;;;;;11.93;6.55;;;;;;;10.37;63.82;98419.53;2078672;28;20584;-59
2023/02/12 13:37:03;;;;;;;11.45;6.95;;;;;;;9.72;65.82;98427.38;2081769;28;20205;-59
2023/02/12 13:38:07;;;;;;;12.43;6.45;;;;;;;9.64;66.80;98430.09;2079661;28;20222;-59
2023/02/12 13:39:40;;;;;;;13.63;8.25;;;;;;;9.01;68.62;98420.38;2083530;28;20221;-59
2023/02/12 13:40:42;;;;;;;11.85;6.70;;;;;;;9.98;67.08;98414.00;2079283;28;20197;-59
2023/02/12 13:41:52;;;;;;;11.55;6.78;;;;;;;9.97;66.26;98415.72;2082460;28;20228;-59
2023/02/12 13:42:58;;;;;;;10.45;6.07;;;;;;;10.12;65.17;98417.25;2082464;28;20270;-59
2023/02/12 13:44:25;;;;;;;11.98;7.00;;;;;;;10.34;66.31;98416.94;2082143;28;20197;-59
2023/02/12 13:45:32;;;;;;;12.68;7.70;;;;;;;11.78;62.55;98414.34;2082278;28;20263;-59
2023/02/12 13:47:11;;;;;;;24.58;9.05;;;;;;;12.11;60.47;98413.66;2080371;28;20748;-59
2023/02/12 13:48:31;;;;;;;23.27;9.10;;;;;;;11.72;60.76;98406.63;2088106;28;20216;-59
2023/02/12 13:49:51;;;;;;;23.55;9.00;;;;;;;12.05;60.68;98409.44;2087045;28;20196;-60
2023/02/12 13:50:58;;;;;;;18.02;9.20;;;;;;;13.04;58.82;98409.66;2082688;28;20621;-59
2023/02/12 13:52:09;;;;;;;16.20;7.22;;;;;;;13.18;57.49;98406.63;2082180;28;20202;-59
2023/02/12 13:53:21;;;;;;;13.93;7.20;;;;;;;12.96;57.10;98401.13;2081345;28;20580;-59
2023/02/12 13:55:11;;;;;;;16.80;8.55;;;;;;;12.32;59.29;98402.69;2082538;28;20725;-60
2023/02/12 13:56:27;;;;;;;13.25;6.65;;;;;;;13.63;57.14;98397.56;2082674;28;20806;-60
2023/02/12 13:57:29;;;;;;;12.77;6.57;;;;;;;12.60;58.15;98404.63;2082504;28;20586;-60
2023/02/12 13:58:33;;;;;;;9.75;5.75;;;;;;;11.95;59.42;98407.88;2082621;28;20212;-60
2023/02/12 13:59:35;;;;;;;13.68;6.70;;;;;;;10.68;62.27;98403.38;2080070;28;20213;-60
2023/02/12 14:00:49;;;;;;;13.10;7.05;;;;;;;10.61;63.50;98399.13;2078292;28;20197;-60
2023/02/12 14:01:51;;;;;;;10.32;6.05;;;;;;;10.98;62.62;98395.00;2079643;28;20656;-59
2023/02/12 14:02:53;;;;;;;11.20;6.30;;;;;;;11.34;62.74;98395.19;2081068;28;20288;-60
2023/02/12 14:03:54;;;;;;;14.63;6.68;;;;;;;12.61;59.28;98395.00;2090068;28;20309;-59
2023/02/12 14:05:00;;;;;;;14.40;6.50;;;;;;;13.11;57.17;98394.59;2085679;28;20589;-59
2023/02/12 14:06:15;;;;;;;12.45;6.15;;;;;;;11.81;59.57;98395.97;2079017;28;20728;-57
2023/02/12 14:07:18;;;;;;;10.93;6.80;;;;;;;11.60;61.06;98399.88;2079715;28;20204;-58
2023/02/12 14:08:41;;;;;;;9.85;6.03;;;;;;;10.90;62.46;98401.22;2080119;28;20240;-57
2023/02/12 14:09:58;;;;;;;12.13;6.45;;;;;;;9.46;66.55;98399.91;2081796;28;21020;-57
2023/02/12 14:11:09;;;;;;;10.40;5.63;;;;;;;10.01;65.86;98398.28;2072716;28;20240;-57
2023/02/12 14:12:26;;;;;;;10.65;6.07;;;;;;;10.40;64.97;98395.13;2074848;28;20205;-57
2023/02/12 14:13:32;;;;;;;11.65;6.35;;;;;;;10.03;65.26;98400.88;2074745;28;20249;-57
2023/02/12 14:14:39;;;;;;;11.15;5.78;;;;;;;10.05;65.93;98392.13;2076682;28;20198;-57
2023/02/12 14:15:43;;;;;;;12.05;5.60;;;;;;;9.80;65.47;98381.19;2072625;28;20631;-59
2023/02/12 14:16:45;;;;;;;10.43;6.10;;;;;;;9.78;66.40;98391.63;2075923;28;20205;-60
2023/02/12 14:18:02;;;;;;;15.63;6.85;;;;;;;9.96;66.37;98400.94;2075975;28;20241;-60
2023/02/12 14:20:02;;;;;;;14.43;6.15;;;;;;;10.15;66.25;98392.00;2076037;28;20246;-60
2023/02/12 14:21:12;;;;;;;10.15;5.18;;;;;;;9.37;67.56;98392.16;2065196;28;20202;-59
2023/02/12 14:22:33;;;;;;;14.82;7.05;;;;;;;9.87;67.12;98387.19;2067480;28;20203;-60
2023/02/12 14:23:35;;;;;;;14.15;6.45;;;;;;;10.09;66.48;98386.00;2058227;28;20237;-59
2023/02/12 14:24:37;;;;;;;9.48;5.88;;;;;;;10.33;65.30;98394.31;2058927;28;20206;-59
2023/02/12 14:25:45;;;;;;;10.02;6.07;;;;;;;11.26;63.12;98374.41;2057563;28;20614;-59
2023/02/12 14:26:47;;;;;;;13.93;6.88;;;;;;;11.82;61.59;98381.97;2063431;28;20207;-60
2023/02/12 14:28:05;;;;;;;10.00;5.43;;;;;;;10.82;63.33;98387.44;2068183;28;20194;-60
2023/02/12 14:29:19;;;;;;;8.25;4.50;;;;;;;10.68;63.81;98376.34;2067248;28;20794;-60
2023/02/12 14:30:32;;;;;;;10.38;6.00;;;;;;;9.77;66.36;98381.22;2067127;28;20198;-59
2023/02/12 14:31:36;;;;;;;11.15;5.68;;;;;;;9.59;67.13;98377.13;2067780;28;20632;-59
2023/02/12 14:32:43;;;;;;;11.75;5.13;;;;;;;9.74;66.93;98379.53;2067662;28;20203;-60
2023/02/12 14:33:47;;;;;;;11.20;6.05;;;;;;;9.78;66.73;98381.19;2068279;28;20293;-59
2023/02/12 14:34:50;;;;;;;13.23;7.10;;;;;;;9.73;67.12;98374.34;2067423;28;20202;-59
2023/02/12 14:36:31;;;;;;;10.13;5.55;;;;;;;9.52;68.25;98376.31;2064769;28;20514;-60
2023/02/12 14:37:35;;;;;;;10.00;5.63;;;;;;;9.99;66.28;98376.56;2062821;28;20209;-59
2023/02/12 14:38:38;;;;;;;9.35;5.50;;;;;;;10.27;65.70;98379.63;2069946;28;20214;-59
2023/02/12 14:39:48;;;;;;;11.68;6.20;;;;;;;10.63;65.26;98368.63;2066421;28;20849;-59
2023/02/12 14:40:51;;;;;;;14.35;5.65;;;;;;;11.85;62.32;98374.06;2064658;28;20198;-60
2023/02/12 14:42:13;;;;;;;11.05;6.15;;;;;;;12.04;61.55;98371.06;2065404;28;20666;-60
2023/02/12 14:43:59;;;;;;;10.15;5.18;;;;;;;11.61;61.09;98372.84;2066344;28;20253;-60
2023/02/12 14:44:57;;;;;;;10.95;6.03;;;;;;;11.79;61.87;98381.19;2067794;28;20209;-60
2023/02/12 14:46:21;;;;;;;10.68;5.70;;;;;;;12.39;60.09;98377.19;2068846;28;20673;-60
2023/02/12 14:47:28;;;;;;;15.30;5.72;;;;;;;12.93;58.39;98380.22;2067821;28;20237;-60
2023/02/12 14:48:51;;;;;;;9.13;5.03;;;;;;;12.47;58.78;98375.25;2074593;28;20705;-60
2023/02/12 14:49:54;;;;;;;9.15;5.45;;;;;;;12.65;59.02;98378.31;2076292;28;20193;-60
2023/02/12 14:50:56;;;;;;;8.10;5.28;;;;;;;13.22;57.04;98372.41;2077301;28;20225;-60
2023/02/12 14:52:05;;;;;;;9.30;5.68;;;;;;;11.99;60.07;98376.38;2074762;28;20202;-60
2023/02/12 14:53:34;;;;;;;10.13;5.20;;;;;;;13.34;57.33;98375.59;2075172;28;20227;-60
2023/02/12 14:54:49;;;;;;;7.85;4.60;;;;;;;12.84;57.94;98376.94;2075830;28;20657;-60
2023/02/12 14:55:51;;;;;;;8.48;5.15;;;;;;;13.62;56.56;98378.31;2078555;28;20208;-60
2023/02/12 14:56:54;;;;;;;9.57;5.30;;;;;;;13.76;55.23;98372.66;2080154;28;20736;-60
2023/02/12 14:57:59;;;;;;;9.38;6.03;;;;;;;14.01;55.02;98371.91;2074673;28;20230;-60
2023/02/12 14:59:02;;;;;;;9.00;5.22;;;;;;;13.57;55.17;98377.59;2075399;28;20284;-60
2023/02/12 15:00:22;;;;;;;10.48;5.97;;;;;;;13.07;56.73;98370.22;2079460;28;20222;-60
2023/02/12 15:01:35;;;;;;;11.00;5.88;;;;;;;13.57;55.93;98374.13;2078098;28;20224;-60
2023/02/12 15:02:40;;;;;;;7.97;5.10;;;;;;;13.86;55.39;98370.63;2073856;28;20202;-60
2023/02/12 15:03:48;;;;;;;10.55;5.97;;;;;;;12.99;56.89;98372.19;2073975;28;20288;-60
2023/02/12 15:04:51;;;;;;;10.05;4.85;;;;;;;12.44;58.19;98375.31;2077593;28;20247;-60
2023/02/12 15:06:24;;;;;;;8.45;4.85;;;;;;;12.40;58.07;98369.31;2077152;28;20240;-60
2023/02/12 15:07:36;;;;;;;10.70;5.97;;;;;;;12.98;57.99;98368.72;2074829;28;20292;-61
2023/02/12 15:08:47;;;;;;;11.18;4.60;;;;;;;12.72;58.72;98372.00;2075403;28;20236;-60
2023/02/12 15:10:14;;;;;;;10.98;4.88;;;;;;;12.21;59.26;98366.28;2076541;28;20229;-60
2023/02/12 15:11:43;;;;;;;9.43;5.50;;;;;;;12.33;58.95;98369.47;2077175;28;20204;-60
2023/02/12 15:12:56;;;;;;;14.73;5.00;;;;;;;11.86;59.32;98367.03;2075522;28;20201;-60
2023/02/12 15:14:22;;;;;;;8.85;5.30;;;;;;;12.40;58.99;98368.44;2075599;28;20210;-60
2023/02/12 15:15:32;;;;;;;10.35;5.53;;;;;;;13.27;57.15;98364.44;2075152;28;20651;-60
2023/02/12 15:16:45;;;;;;;10.32;5.10;;;;;;;13.44;56.14;98363.13;2075491;28;20277;-60
2023/02/12 15:17:58;;;;;;;9.57;4.88;;;;;;;13.67;55.52;98362.44;2075328;28;20211;-60
2023/02/12 15:19:24;;;;;;;11.55;5.25;;;;;;;13.63;54.89;98366.91;2076503;28;20228;-60
2023/02/12 15:20:36;;;;;;;9.70;5.28;;;;;;;11.71;59.69;98371.75;2075583;28;20207;-60
2023/02/12 15:21:38;;;;;;;9.95;5.20;;;;;;;11.32;60.96;98363.84;2075236;28;20244;-60
2023/02/12 15:22:40;;;;;;;8.38;4.90;;;;;;;12.03;60.36;98372.78;2075095;28;20230;-60
2023/02/12 15:23:43;;;;;;;9.50;5.82;;;;;;;12.03;59.30;98362.31;2076319;28;20208;-60
2023/02/12 15:24:45;;;;;;;9.85;5.15;;;;;;;11.19;61.99;98365.00;2075577;28;20254;-60
2023/02/12 15:25:49;;;;;;;7.90;4.38;;;;;;;12.24;59.92;98370.59;2077134;28;20203;-60
2023/02/12 15:26:57;;;;;;;10.07;4.97;;;;;;;12.04;59.36;98365.81;2082309;28;20679;-60
2023/02/12 15:28:01;;;;;;;9.90;5.60;;;;;;;11.90;60.04;98371.34;2080187;28;20251;-60
2023/02/12 15:29:03;;;;;;;9.00;5.10;;;;;;;12.40;59.13;98364.09;2074079;28;20361;-60
2023/02/12 15:30:05;;;;;;;7.93;4.90;;;;;;;12.89;58.00;98361.94;2073898;28;20198;-60
2023/02/12 15:31:15;;;;;;;7.90;4.45;;;;;;;12.64;57.56;98366.97;2074743;28;20200;-60
2023/02/12 15:32:28;;;;;;;7.63;4.63;;;;;;;13.15;57.09;98367.38;2074184;28;20541;-60
2023/02/12 15:33:32;;;;;;;9.35;4.30;;;;;;;13.48;56.44;98364.75;2074860;28;20308;-60
2023/02/12 15:34:38;;;;;;;6.93;3.60;;;;;;;13.53;56.12;98361.09;2074908;28;20191;-60
2023/02/12 15:35:43;;;;;;;7.50;4.35;;;;;;;12.20;58.85;98364.56;2074532;28;20194;-60
2023/02/12 15:36:45;;;;;;;6.72;4.22;;;;;;;12.98;57.73;98363.47;2074205;28;20286;-60
2023/02/12 15:37:48;;;;;;;8.18;4.32;;;;;;;13.23;56.71;98353.16;2074445;28;20210;-60
2023/02/12 15:39:05;;;;;;;6.68;3.95;;;;;;;12.41;58.75;98360.53;2075324;28;20225;-60
2023/02/12 15:40:13;;;;;;;8.73;4.13;;;;;;;13.13;57.24;98353.44;2074904;28;20216;-62
2023/02/12 15:41:37;;;;;;;5.63;3.60;;;;;;;13.29;56.61;98353.88;2074986;28;20252;-62
2023/02/12 15:42:41;;;;;;;7.00;3.45;;;;;;;13.14;56.95;98352.53;2075077;28;20223;-62
2023/02/12 15:43:42;;;;;;;9.70;4.50;;;;;;;12.99;56.95;98349.44;2074185;28;20696;-62
2023/02/12 15:44:44;;;;;;;5.43;3.45;;;;;;;13.19;56.86;98364.66;2074515;28;20673;-62
2023/02/12 15:45:50;;;;;;;6.13;3.88;;;;;;;12.30;59.05;98352.09;2076454;28;20288;-63
2023/02/12 15:46:57;;;;;;;5.65;3.85;;;;;;;12.99;57.57;98354.69;2076322;28;20205;-62
2023/02/12 15:48:07;;;;;;;6.60;3.90;;;;;;;12.65;57.48;98360.84;2074692;28;20217;-62
2023/02/12 15:49:21;;;;;;;8.20;3.90;;;;;;;12.74;57.76;98357.13;2076058;28;20197;-62
2023/02/12 15:50:23;;;;;;;6.22;3.75;;;;;;;12.85;57.65;98356.81;2073177;28;20202;-63
2023/02/12 15:51:40;;;;;;;5.72;3.47;;;;;;;12.76;57.56;98354.44;2072072;28;20837;-63
2023/02/12 15:52:45;;;;;;;10.85;5.07;;;;;;;12.00;58.77;98356.28;2074457;28;20205;-62
2023/02/12 15:53:47;;;;;;;6.05;3.50;;;;;;;12.28;58.99;98353.91;2075309;28;20831;-63
2023/02/12 15:54:48;;;;;;;5.70;3.38;;;;;;;12.56;58.34;98358.47;2075837;28;20200;-63
2023/02/12 15:55:50;;;;;;;9.63;3.92;;;;;;;12.66;57.97;98359.94;2075992;28;20209;-63
2023/02/12 15:56:53;;;;;;;6.55;3.10;;;;;;;12.17;58.89;98358.53;2075053;28;20193;-63
2023/02/12 15:57:58;;;;;;;7.57;3.78;;;;;;;12.45;58.81;98357.88;2075246;28;20233;-63
2023/02/12 15:59:01;;;;;;;6.60;3.50;;;;;;;12.77;58.27;98362.25;2075563;28;20529;-62
2023/02/12 16:00:08;;;;;;;6.28;3.63;;;;;;;12.89;58.10;98367.19;2074578;28;20200;-64
2023/02/12 16:01:17;;;;;;;8.30;3.20;;;;;;;13.05;57.87;98359.78;2075162;28;20202;-63
2023/02/12 16:02:28;;;;;;;6.25;2.80;;;;;;;12.84;57.48;98368.22;2073631;28;20280;-63
2023/02/12 16:03:31;;;;;;;7.05;3.72;;;;;;;12.20;58.70;98355.81;2075657;28;20230;-63
2023/02/12 16:04:39;;;;;;;5.78;2.95;;;;;;;11.99;59.55;98365.06;2075951;28;20236;-63
2023/02/12 16:05:40;;;;;;;6.30;3.55;;;;;;;12.16;59.07;98355.03;2075771;28;20228;-63
2023/02/12 16:06:42;;;;;;;4.18;2.53;;;;;;;12.10;59.08;98352.59;2077055;28;20291;-63
2023/02/12 16:07:45;;;;;;;5.45;2.95;;;;;;;11.52;60.52;98346.88;2075131;28;20205;-63
2023/02/12 16:09:16;;;;;;;8.65;2.63;;;;;;;11.58;60.63;98357.22;2074676;28;20645;-63
2023/02/12 16:10:19;;;;;;;4.35;2.47;;;;;;;11.59;60.54;98348.44;2075623;28;20863;-62
2023/02/12 16:11:22;;;;;;;5.18;3.10;;;;;;;11.48;60.69;98343.47;2075855;28;20833;-60
2023/02/12 16:12:29;;;;;;;5.07;3.25;;;;;;;11.76;60.33;98351.56;2075646;28;20292;-61
2023/02/12 16:13:33;;;;;;;6.57;3.53;;;;;;;11.69;60.53;98351.72;2074877;28;20631;-60
2023/02/12 16:14:46;;;;;;;4.47;3.10;;;;;;;11.59;60.47;98340.59;2074852;28;20233;-60
2023/02/12 16:16:03;;;;;;;7.45;3.38;;;;;;;11.35;61.19;98348.09;2074490;28;20279;-61
2023/02/12 16:17:26;;;;;;;4.82;2.72;;;;;;;11.48;60.88;98348.69;2074901;28;20239;-61
2023/02/12 16:18:28;;;;;;;5.15;2.92;;;;;;;11.46;60.88;98350.47;2076482;28;20251;-60
2023/02/12 16:19:35;;;;;;;5.65;3.33;;;;;;;11.33;61.21;98349.03;2077821;28;20839;-58
2023/02/12 16:20:37;;;;;;;5.65;3.15;;;;;;;11.23;61.45;98348.34;2073343;28;20214;-60
2023/02/12 16:21:38;;;;;;;6.68;2.83;;;;;;;11.33;61.27;98354.25;2074980;28;20248;-60
2023/02/12 16:22:42;;;;;;;5.28;2.83;;;;;;;10.48;62.99;98345.38;2074550;28;20197;-61
2023/02/12 16:23:47;;;;;;;5.25;2.95;;;;;;;10.52;63.21;98350.50;2075506;28;20240;-61
2023/02/12 16:24:51;;;;;;;6.00;3.20;;;;;;;10.47;63.56;98336.66;2075784;28;20225;-61
2023/02/12 16:25:53;;;;;;;7.35;2.40;;;;;;;10.35;63.95;98353.38;2079051;28;20203;-60
2023/02/12 16:27:00;;;;;;;7.70;3.28;;;;;;;10.23;64.51;98357.06;2078894;28;20198;-60
2023/02/12 16:28:19;;;;;;;6.72;2.83;;;;;;;9.95;65.02;98354.88;2074216;28;20698;-61
2023/02/12 16:29:21;;;;;;;4.63;2.85;;;;;;;9.29;66.89;98363.59;2071950;28;20198;-60
2023/02/12 16:30:27;;;;;;;6.22;3.42;;;;;;;9.41;67.21;98360.84;2077579;28;20203;-60
